LDPL METAR and TAF | Updated Today

LDPL METAR

Pula Airport

Observation time: 17 min. ago

LDPL 032300Z 05008KT CAVOK 04/M03 Q1014

Need help? Read our tutorial on how to read METARs or read the parsed version below.

Pula Airport (LDPL) METAR

  • Weather conditions on Fri, 03 Dec 2021 23:00:00 +0000 (17 min. ago):
  • Present conditions: Dry
  • Clouds: Clear skies
  • Visibility: Greater than 10 km
  • Wind: 50 degrees at 8 knots
  • Temperature: 4 celsius
  • Dew point: -3 celsius
  • Pressure: 1014 millibars
  • Remarks: None


Useful to know...

LDPL TAF

Pula Airport

TAF LDPL 031725Z 0318/0418 10005KT CAVOK TX10/0413Z TNM01/0406Z PROB40 0318/0400 06012KT PROB30 TEMPO 0413/0418 23008KT
Observation time: 5:52 hr. ago
Need help? Read our tutorial on how to read TAFs or read the parsed version below.

Parsed version of TAF for Pula Airport (LDPL)

  • From 03 December at 18:00 UTC, to day 04 of the month at 18:00 UTC
  • Visibility: Greater than 10 km
  • Wind: 100 degrees at 5
  • From 03 December at 18:00 UTC, to day 04 of the month at 00:00 UTC
    Probability of 40%
  • Wind: 60 degrees at 12
  • Expected to arise temporarily, from 04 December at 13:00 UTC, to day 04 of the month at 18:00 UTC
    Probability of 30%
  • Wind: 230 degrees at 8